Coll de Capsacosta

La Vall De Bianya, Catalunya, Spain
  • Distance
    8.7 km
  • Elevation
    438 m
  • Grade
    5%

Overall Leaderboard

Speed Power
VAM
Time
Adria M. 1 Adria Moreno 28.3km/h 326 Powermeter 1,411.5 18:38
2 Toni O. 28.1km/h 338 1,401.5 18:46
3 Robert Gesink 26.7km/h 413 Powermeter 1,335.1 19:42
4 Alexey Vermeulen 26.7km/h 353 Powermeter 1,332.9 19:44
5 Alex Martinez 25.9km/h 157 1,292.5 20:21
6 Dennis Van Winden 25.9km/h 427 1,290.4 20:23
7 Sergi Oller 25.8km/h - 1,287.2 20:26
8 Dominique Rollin 25.6km/h 125 Powermeter 1,279.9 20:33
9 Mauricio M. 25.6km/h - 1,277.8 20:35
10 rcr19.es Raúl Cruz 🐗💓 25.3km/h 411 1,264.5 20:48

Women's Leaderboard

Speed Power
VAM
Time
Sara G. 1 SARA GAY 23.6km/h 249 1,177.7 22:20
2 Rita González Diego 23.2km/h 99 1,156.1 22:45
3 Teresa Costa 22.1km/h 238 1,102.8 23:51
4 Martina Sans -. 21.6km/h 146 Powermeter 1,077.9 24:24
5 Sirex noctilio 21.4km/h 265 Powermeter 1,068.4 24:37
6 Lydia Puyals @theservicecourse 21.0km/h 195 1,050.7 25:02
7 Sann C. 21.0km/h 224 1,049.3 25:04
8 Lorena Llamas 21.0km/h 189 1,046.5 25:08
9 Júlia Casas 20.7km/h 220 1,030.8 25:31
10 Amy Lauren J. 20.6km/h 217 Powermeter 1,028.7 25:34